sensor_id;sensor_type;location;lat;lon;timestamp;P1;durP1;ratioP1;P2;durP2;ratioP2
18455;SDS011;9357;49.900;8.208;2024-01-30T00:00:45;36.65;;;24.42;;
18455;SDS011;9357;49.900;8.208;2024-01-30T00:02:18;35.90;;;23.80;;
18455;SDS011;9357;49.900;8.208;2024-01-30T00:03:49;35.30;;;24.27;;
18455;SDS011;9357;49.900;8.208;2024-01-30T00:05:22;31.67;;;23.00;;
18455;SDS011;9357;49.900;8.208;2024-01-30T00:06:55;35.05;;;22.92;;
18455;SDS011;9357;49.900;8.208;2024-01-30T00:08:28;37.28;;;24.45;;
18455;SDS011;9357;49.900;8.208;2024-01-30T00:10:00;33.70;;;22.65;;
18455;SDS011;9357;49.900;8.208;2024-01-30T00:11:33;36.40;;;25.08;;
18455;SDS011;9357;49.900;8.208;2024-01-30T00:13:05;33.72;;;23.42;;
18455;SDS011;9357;49.900;8.208;2024-01-30T00:14:38;36.88;;;24.80;;
18455;SDS011;9357;49.900;8.208;2024-01-30T00:16:19;37.40;;;23.88;;
18455;SDS011;9357;49.900;8.208;2024-01-30T00:17:52;34.63;;;23.52;;
18455;SDS011;9357;49.900;8.208;2024-01-30T00:19:24;35.15;;;23.65;;
18455;SDS011;9357;49.900;8.208;2024-01-30T00:20:57;34.05;;;23.58;;
18455;SDS011;9357;49.900;8.208;2024-01-30T00:22:30;33.58;;;22.58;;
18455;SDS011;9357;49.900;8.208;2024-01-30T00:24:03;33.75;;;22.58;;
18455;SDS011;9357;49.900;8.208;2024-01-30T00:25:35;35.20;;;21.58;;
18455;SDS011;9357;49.900;8.208;2024-01-30T00:27:08;30.25;;;22.30;;
18455;SDS011;9357;49.900;8.208;2024-01-30T00:28:40;32.53;;;22.80;;
18455;SDS011;9357;49.900;8.208;2024-01-30T00:30:13;30.20;;;21.48;;
18455;SDS011;9357;49.900;8.208;2024-01-30T00:31:45;31.50;;;21.88;;
18455;SDS011;9357;49.900;8.208;2024-01-30T00:33:18;30.60;;;21.35;;
18455;SDS011;9357;49.900;8.208;2024-01-30T00:34:50;31.77;;;21.95;;
18455;SDS011;9357;49.900;8.208;2024-01-30T00:36:23;30.92;;;22.45;;
18455;SDS011;9357;49.900;8.208;2024-01-30T00:37:56;33.60;;;22.70;;
18455;SDS011;9357;49.900;8.208;2024-01-30T00:39:29;30.08;;;21.23;;
18455;SDS011;9357;49.900;8.208;2024-01-30T00:41:01;28.98;;;21.05;;
18455;SDS011;9357;49.900;8.208;2024-01-30T00:42:33;31.10;;;21.48;;
18455;SDS011;9357;49.900;8.208;2024-01-30T00:44:05;32.47;;;22.13;;
18455;SDS011;9357;49.900;8.208;2024-01-30T00:45:38;30.73;;;20.27;;
18455;SDS011;9357;49.900;8.208;2024-01-30T00:47:10;30.02;;;21.60;;
18455;SDS011;9357;49.900;8.208;2024-01-30T00:48:42;34.92;;;22.00;;
18455;SDS011;9357;49.900;8.208;2024-01-30T00:50:15;28.48;;;21.10;;
18455;SDS011;9357;49.900;8.208;2024-01-30T00:51:47;30.08;;;21.08;;
18455;SDS011;9357;49.900;8.208;2024-01-30T00:53:20;29.20;;;20.38;;
18455;SDS011;9357;49.900;8.208;2024-01-30T00:54:53;28.55;;;20.85;;
18455;SDS011;9357;49.900;8.208;2024-01-30T00:56:25;31.05;;;21.17;;
18455;SDS011;9357;49.900;8.208;2024-01-30T00:57:58;30.42;;;21.17;;
18455;SDS011;9357;49.900;8.208;2024-01-30T00:59:29;29.23;;;21.02;;
18455;SDS011;9357;49.900;8.208;2024-01-30T01:01:02;32.88;;;22.45;;
18455;SDS011;9357;49.900;8.208;2024-01-30T01:02:34;33.78;;;21.60;;
18455;SDS011;9357;49.900;8.208;2024-01-30T01:04:07;31.00;;;21.38;;
18455;SDS011;9357;49.900;8.208;2024-01-30T01:05:39;30.75;;;21.98;;
18455;SDS011;9357;49.900;8.208;2024-01-30T01:07:12;29.80;;;21.45;;
18455;SDS011;9357;49.900;8.208;2024-01-30T01:08:45;33.03;;;20.98;;
18455;SDS011;9357;49.900;8.208;2024-01-30T01:10:18;30.50;;;21.65;;
18455;SDS011;9357;49.900;8.208;2024-01-30T01:11:49;30.45;;;20.80;;
18455;SDS011;9357;49.900;8.208;2024-01-30T01:13:22;30.20;;;21.30;;
18455;SDS011;9357;49.900;8.208;2024-01-30T01:14:54;30.13;;;20.70;;
18455;SDS011;9357;49.900;8.208;2024-01-30T01:16:27;31.23;;;21.02;;
18455;SDS011;9357;49.900;8.208;2024-01-30T01:17:59;31.83;;;22.45;;
18455;SDS011;9357;49.900;8.208;2024-01-30T01:19:32;34.13;;;22.20;;
18455;SDS011;9357;49.900;8.208;2024-01-30T01:21:04;30.98;;;21.52;;
18455;SDS011;9357;49.900;8.208;2024-01-30T01:22:37;33.33;;;23.45;;
18455;SDS011;9357;49.900;8.208;2024-01-30T01:24:11;32.83;;;23.10;;
18455;SDS011;9357;49.900;8.208;2024-01-30T01:25:43;29.83;;;21.05;;
18455;SDS011;9357;49.900;8.208;2024-01-30T01:27:16;34.97;;;23.10;;
18455;SDS011;9357;49.900;8.208;2024-01-30T01:28:48;32.95;;;22.65;;
18455;SDS011;9357;49.900;8.208;2024-01-30T01:30:20;31.63;;;23.15;;
18455;SDS011;9357;49.900;8.208;2024-01-30T01:31:53;34.13;;;23.55;;
18455;SDS011;9357;49.900;8.208;2024-01-30T01:33:25;35.10;;;23.30;;
18455;SDS011;9357;49.900;8.208;2024-01-30T01:34:58;37.03;;;24.13;;
18455;SDS011;9357;49.900;8.208;2024-01-30T01:36:30;34.55;;;24.35;;
18455;SDS011;9357;49.900;8.208;2024-01-30T01:38:03;36.67;;;23.92;;
18455;SDS011;9357;49.900;8.208;2024-01-30T01:39:36;34.08;;;23.80;;
18455;SDS011;9357;49.900;8.208;2024-01-30T01:41:09;32.92;;;23.33;;
18455;SDS011;9357;49.900;8.208;2024-01-30T01:42:40;36.00;;;23.48;;
18455;SDS011;9357;49.900;8.208;2024-01-30T01:44:13;37.13;;;23.13;;
18455;SDS011;9357;49.900;8.208;2024-01-30T01:45:45;32.80;;;23.02;;
18455;SDS011;9357;49.900;8.208;2024-01-30T01:47:18;33.65;;;22.40;;
18455;SDS011;9357;49.900;8.208;2024-01-30T01:48:50;35.25;;;22.27;;
18455;SDS011;9357;49.900;8.208;2024-01-30T01:50:23;32.45;;;21.83;;
18455;SDS011;9357;49.900;8.208;2024-01-30T01:51:56;29.58;;;20.95;;
18455;SDS011;9357;49.900;8.208;2024-01-30T01:53:30;33.60;;;22.83;;
18455;SDS011;9357;49.900;8.208;2024-01-30T01:55:03;34.20;;;21.90;;
18455;SDS011;9357;49.900;8.208;2024-01-30T01:56:37;35.63;;;21.95;;
18455;SDS011;9357;49.900;8.208;2024-01-30T01:58:11;29.83;;;21.13;;
18455;SDS011;9357;49.900;8.208;2024-01-30T01:59:44;31.63;;;20.90;;
18455;SDS011;9357;49.900;8.208;2024-01-30T02:01:17;31.50;;;21.80;;
18455;SDS011;9357;49.900;8.208;2024-01-30T02:02:51;30.15;;;20.25;;
18455;SDS011;9357;49.900;8.208;2024-01-30T02:04:25;33.95;;;22.42;;
18455;SDS011;9357;49.900;8.208;2024-01-30T02:05:57;32.95;;;21.15;;
18455;SDS011;9357;49.900;8.208;2024-01-30T02:07:31;33.10;;;21.92;;
18455;SDS011;9357;49.900;8.208;2024-01-30T02:09:02;36.65;;;23.08;;
18455;SDS011;9357;49.900;8.208;2024-01-30T02:10:37;33.83;;;22.17;;
18455;SDS011;9357;49.900;8.208;2024-01-30T02:12:09;33.10;;;22.02;;
18455;SDS011;9357;49.900;8.208;2024-01-30T02:13:42;30.35;;;21.95;;
18455;SDS011;9357;49.900;8.208;2024-01-30T02:15:15;32.40;;;21.63;;
18455;SDS011;9357;49.900;8.208;2024-01-30T02:16:47;31.38;;;21.25;;
18455;SDS011;9357;49.900;8.208;2024-01-30T02:18:19;31.05;;;21.63;;
18455;SDS011;9357;49.900;8.208;2024-01-30T02:19:52;32.60;;;22.23;;
18455;SDS011;9357;49.900;8.208;2024-01-30T02:21:26;31.33;;;21.83;;
18455;SDS011;9357;49.900;8.208;2024-01-30T02:22:58;34.35;;;22.10;;
18455;SDS011;9357;49.900;8.208;2024-01-30T02:24:32;33.50;;;21.83;;
18455;SDS011;9357;49.900;8.208;2024-01-30T02:26:04;36.50;;;23.88;;
18455;SDS011;9357;49.900;8.208;2024-01-30T02:27:37;37.55;;;24.15;;
18455;SDS011;9357;49.900;8.208;2024-01-30T02:29:08;36.60;;;24.02;;
18455;SDS011;9357;49.900;8.208;2024-01-30T02:30:42;32.50;;;22.17;;
18455;SDS011;9357;49.900;8.208;2024-01-30T02:32:15;36.95;;;23.55;;
18455;SDS011;9357;49.900;8.208;2024-01-30T02:33:47;36.85;;;24.48;;
18455;SDS011;9357;49.900;8.208;2024-01-30T02:35:20;31.92;;;21.88;;
18455;SDS011;9357;49.900;8.208;2024-01-30T02:36:53;33.33;;;22.65;;
18455;SDS011;9357;49.900;8.208;2024-01-30T02:38:26;34.13;;;22.92;;
18455;SDS011;9357;49.900;8.208;2024-01-30T02:39:58;32.28;;;22.52;;
18455;SDS011;9357;49.900;8.208;2024-01-30T02:41:30;39.60;;;24.20;;
18455;SDS011;9357;49.900;8.208;2024-01-30T02:43:02;38.05;;;24.38;;
18455;SDS011;9357;49.900;8.208;2024-01-30T02:44:36;34.58;;;23.25;;
18455;SDS011;9357;49.900;8.208;2024-01-30T02:46:08;33.58;;;22.92;;
18455;SDS011;9357;49.900;8.208;2024-01-30T02:47:41;39.53;;;24.55;;
18455;SDS011;9357;49.900;8.208;2024-01-30T02:49:13;34.78;;;24.60;;
18455;SDS011;9357;49.900;8.208;2024-01-30T02:50:46;39.30;;;25.33;;
18455;SDS011;9357;49.900;8.208;2024-01-30T02:52:19;35.42;;;24.20;;
18455;SDS011;9357;49.900;8.208;2024-01-30T02:53:52;34.78;;;23.70;;
18455;SDS011;9357;49.900;8.208;2024-01-30T02:55:23;34.47;;;22.60;;
18455;SDS011;9357;49.900;8.208;2024-01-30T02:56:57;39.03;;;25.23;;
18455;SDS011;9357;49.900;8.208;2024-01-30T02:58:28;37.80;;;24.67;;
18455;SDS011;9357;49.900;8.208;2024-01-30T03:00:01;36.63;;;24.27;;
18455;SDS011;9357;49.900;8.208;2024-01-30T03:01:41;37.30;;;24.95;;
18455;SDS011;9357;49.900;8.208;2024-01-30T03:03:14;33.55;;;23.40;;
18455;SDS011;9357;49.900;8.208;2024-01-30T03:04:47;35.88;;;23.92;;
18455;SDS011;9357;49.900;8.208;2024-01-30T03:06:19;36.47;;;23.50;;
18455;SDS011;9357;49.900;8.208;2024-01-30T03:07:55;37.13;;;24.25;;
18455;SDS011;9357;49.900;8.208;2024-01-30T03:09:27;35.92;;;24.23;;
18455;SDS011;9357;49.900;8.208;2024-01-30T03:11:00;35.35;;;24.00;;
18455;SDS011;9357;49.900;8.208;2024-01-30T03:12:31;36.67;;;25.58;;
18455;SDS011;9357;49.900;8.208;2024-01-30T03:14:04;38.97;;;25.85;;
18455;SDS011;9357;49.900;8.208;2024-01-30T03:15:36;37.42;;;24.63;;
18455;SDS011;9357;49.900;8.208;2024-01-30T03:17:09;40.63;;;25.77;;
18455;SDS011;9357;49.900;8.208;2024-01-30T03:18:40;39.60;;;25.08;;
18455;SDS011;9357;49.900;8.208;2024-01-30T03:20:13;37.67;;;24.20;;
18455;SDS011;9357;49.900;8.208;2024-01-30T03:21:45;37.47;;;25.35;;
18455;SDS011;9357;49.900;8.208;2024-01-30T03:23:19;38.63;;;25.30;;
18455;SDS011;9357;49.900;8.208;2024-01-30T03:24:51;40.65;;;26.08;;
18455;SDS011;9357;49.900;8.208;2024-01-30T03:26:24;38.80;;;25.48;;
18455;SDS011;9357;49.900;8.208;2024-01-30T03:27:56;36.47;;;25.20;;
18455;SDS011;9357;49.900;8.208;2024-01-30T03:29:28;38.42;;;24.83;;
18455;SDS011;9357;49.900;8.208;2024-01-30T03:31:00;40.13;;;25.70;;
18455;SDS011;9357;49.900;8.208;2024-01-30T03:32:33;40.72;;;25.23;;
18455;SDS011;9357;49.900;8.208;2024-01-30T03:34:05;37.85;;;25.35;;
18455;SDS011;9357;49.900;8.208;2024-01-30T03:35:38;41.92;;;25.30;;
18455;SDS011;9357;49.900;8.208;2024-01-30T03:37:10;36.58;;;24.48;;
18455;SDS011;9357;49.900;8.208;2024-01-30T03:38:44;40.08;;;26.25;;
18455;SDS011;9357;49.900;8.208;2024-01-30T03:40:15;37.13;;;25.67;;
18455;SDS011;9357;49.900;8.208;2024-01-30T03:41:48;35.17;;;24.92;;
18455;SDS011;9357;49.900;8.208;2024-01-30T03:43:20;35.58;;;25.38;;
18455;SDS011;9357;49.900;8.208;2024-01-30T03:44:53;36.85;;;23.05;;
18455;SDS011;9357;49.900;8.208;2024-01-30T03:46:26;37.85;;;24.25;;
18455;SDS011;9357;49.900;8.208;2024-01-30T03:47:58;35.17;;;23.35;;
18455;SDS011;9357;49.900;8.208;2024-01-30T03:49:31;33.75;;;23.27;;
18455;SDS011;9357;49.900;8.208;2024-01-30T03:51:03;32.92;;;22.70;;
18455;SDS011;9357;49.900;8.208;2024-01-30T03:52:36;34.60;;;23.73;;
18455;SDS011;9357;49.900;8.208;2024-01-30T03:54:09;33.40;;;22.67;;
18455;SDS011;9357;49.900;8.208;2024-01-30T03:55:42;34.65;;;24.08;;
18455;SDS011;9357;49.900;8.208;2024-01-30T03:57:13;35.33;;;23.48;;
18455;SDS011;9357;49.900;8.208;2024-01-30T03:58:46;37.92;;;23.38;;
18455;SDS011;9357;49.900;8.208;2024-01-30T04:00:18;35.03;;;23.02;;
18455;SDS011;9357;49.900;8.208;2024-01-30T04:01:51;32.47;;;22.90;;
18455;SDS011;9357;49.900;8.208;2024-01-30T04:03:23;35.70;;;23.10;;
18455;SDS011;9357;49.900;8.208;2024-01-30T04:04:56;33.00;;;22.40;;
18455;SDS011;9357;49.900;8.208;2024-01-30T04:06:28;36.10;;;21.88;;
18455;SDS011;9357;49.900;8.208;2024-01-30T04:08:00;34.15;;;22.30;;
18455;SDS011;9357;49.900;8.208;2024-01-30T04:09:34;31.17;;;21.83;;
18455;SDS011;9357;49.900;8.208;2024-01-30T04:11:06;33.40;;;23.15;;
18455;SDS011;9357;49.900;8.208;2024-01-30T04:12:38;33.75;;;21.42;;
18455;SDS011;9357;49.900;8.208;2024-01-30T04:14:11;34.88;;;23.20;;
18455;SDS011;9357;49.900;8.208;2024-01-30T04:15:43;34.90;;;23.67;;
18455;SDS011;9357;49.900;8.208;2024-01-30T04:17:16;38.83;;;22.65;;
18455;SDS011;9357;49.900;8.208;2024-01-30T04:18:47;37.05;;;24.33;;
18455;SDS011;9357;49.900;8.208;2024-01-30T04:20:20;35.95;;;24.08;;
18455;SDS011;9357;49.900;8.208;2024-01-30T04:21:52;35.55;;;23.33;;
18455;SDS011;9357;49.900;8.208;2024-01-30T04:23:25;33.80;;;21.73;;
18455;SDS011;9357;49.900;8.208;2024-01-30T04:24:58;33.65;;;23.13;;
18455;SDS011;9357;49.900;8.208;2024-01-30T04:26:31;36.20;;;22.67;;
18455;SDS011;9357;49.900;8.208;2024-01-30T04:28:03;34.83;;;23.83;;
18455;SDS011;9357;49.900;8.208;2024-01-30T04:29:36;36.65;;;24.02;;
18455;SDS011;9357;49.900;8.208;2024-01-30T04:31:09;36.10;;;23.45;;
18455;SDS011;9357;49.900;8.208;2024-01-30T04:32:40;37.22;;;25.10;;
18455;SDS011;9357;49.900;8.208;2024-01-30T04:34:13;33.88;;;23.40;;
18455;SDS011;9357;49.900;8.208;2024-01-30T04:35:45;34.17;;;21.98;;
18455;SDS011;9357;49.900;8.208;2024-01-30T04:37:18;33.40;;;22.60;;
18455;SDS011;9357;49.900;8.208;2024-01-30T04:38:51;35.05;;;22.65;;
18455;SDS011;9357;49.900;8.208;2024-01-30T04:40:24;33.90;;;21.08;;
18455;SDS011;9357;49.900;8.208;2024-01-30T04:41:57;32.55;;;21.08;;
18455;SDS011;9357;49.900;8.208;2024-01-30T04:43:30;30.38;;;20.30;;
18455;SDS011;9357;49.900;8.208;2024-01-30T04:45:03;35.63;;;22.33;;
18455;SDS011;9357;49.900;8.208;2024-01-30T04:46:36;34.08;;;21.90;;
18455;SDS011;9357;49.900;8.208;2024-01-30T04:48:07;30.88;;;21.45;;
18455;SDS011;9357;49.900;8.208;2024-01-30T04:49:40;31.60;;;21.90;;
18455;SDS011;9357;49.900;8.208;2024-01-30T04:51:12;32.63;;;21.65;;
18455;SDS011;9357;49.900;8.208;2024-01-30T04:52:45;33.85;;;22.70;;
18455;SDS011;9357;49.900;8.208;2024-01-30T04:54:17;31.85;;;21.67;;
18455;SDS011;9357;49.900;8.208;2024-01-30T04:55:51;33.67;;;21.63;;
18455;SDS011;9357;49.900;8.208;2024-01-30T04:57:23;29.92;;;20.85;;
18455;SDS011;9357;49.900;8.208;2024-01-30T04:58:55;31.05;;;21.08;;
18455;SDS011;9357;49.900;8.208;2024-01-30T05:00:28;30.75;;;21.40;;
18455;SDS011;9357;49.900;8.208;2024-01-30T05:02:01;36.60;;;23.25;;
18455;SDS011;9357;49.900;8.208;2024-01-30T05:03:33;32.78;;;22.17;;
18455;SDS011;9357;49.900;8.208;2024-01-30T05:05:06;32.53;;;22.20;;
18455;SDS011;9357;49.900;8.208;2024-01-30T05:06:39;33.40;;;22.48;;
18455;SDS011;9357;49.900;8.208;2024-01-30T05:08:11;32.72;;;20.77;;
18455;SDS011;9357;49.900;8.208;2024-01-30T05:09:44;35.80;;;22.63;;
18455;SDS011;9357;49.900;8.208;2024-01-30T05:11:17;33.08;;;21.63;;
18455;SDS011;9357;49.900;8.208;2024-01-30T05:12:50;34.08;;;22.60;;
18455;SDS011;9357;49.900;8.208;2024-01-30T05:14:22;37.05;;;23.42;;
18455;SDS011;9357;49.900;8.208;2024-01-30T05:15:55;34.80;;;22.20;;
18455;SDS011;9357;49.900;8.208;2024-01-30T05:17:26;32.42;;;21.25;;
18455;SDS011;9357;49.900;8.208;2024-01-30T05:18:59;34.83;;;22.35;;
18455;SDS011;9357;49.900;8.208;2024-01-30T05:20:33;32.70;;;21.55;;
18455;SDS011;9357;49.900;8.208;2024-01-30T05:22:06;35.33;;;21.65;;
18455;SDS011;9357;49.900;8.208;2024-01-30T05:23:38;32.55;;;21.55;;
18455;SDS011;9357;49.900;8.208;2024-01-30T05:25:12;28.75;;;21.15;;
18455;SDS011;9357;49.900;8.208;2024-01-30T05:26:46;32.60;;;20.95;;
18455;SDS011;9357;49.900;8.208;2024-01-30T05:28:19;35.13;;;22.48;;
18455;SDS011;9357;49.900;8.208;2024-01-30T05:29:51;34.28;;;21.02;;
18455;SDS011;9357;49.900;8.208;2024-01-30T05:31:24;34.47;;;22.60;;
18455;SDS011;9357;49.900;8.208;2024-01-30T05:32:57;33.88;;;22.25;;
18455;SDS011;9357;49.900;8.208;2024-01-30T05:34:30;34.17;;;23.20;;
18455;SDS011;9357;49.900;8.208;2024-01-30T05:36:02;36.13;;;23.42;;
18455;SDS011;9357;49.900;8.208;2024-01-30T05:37:34;34.60;;;22.95;;
18455;SDS011;9357;49.900;8.208;2024-01-30T05:39:06;35.03;;;22.50;;
18455;SDS011;9357;49.900;8.208;2024-01-30T05:40:39;37.47;;;22.48;;
18455;SDS011;9357;49.900;8.208;2024-01-30T05:42:12;32.10;;;22.00;;
18455;SDS011;9357;49.900;8.208;2024-01-30T05:43:46;33.35;;;22.75;;
18455;SDS011;9357;49.900;8.208;2024-01-30T05:45:17;30.90;;;22.58;;
18455;SDS011;9357;49.900;8.208;2024-01-30T05:46:51;37.35;;;24.20;;
18455;SDS011;9357;49.900;8.208;2024-01-30T05:48:22;35.53;;;23.40;;
18455;SDS011;9357;49.900;8.208;2024-01-30T05:49:55;36.58;;;23.92;;
18455;SDS011;9357;49.900;8.208;2024-01-30T05:51:27;37.95;;;23.50;;
18455;SDS011;9357;49.900;8.208;2024-01-30T05:53:00;37.83;;;24.10;;
18455;SDS011;9357;49.900;8.208;2024-01-30T05:54:32;37.20;;;24.60;;
18455;SDS011;9357;49.900;8.208;2024-01-30T05:56:05;34.97;;;23.80;;
18455;SDS011;9357;49.900;8.208;2024-01-30T05:57:39;34.92;;;24.10;;
18455;SDS011;9357;49.900;8.208;2024-01-30T05:59:11;37.88;;;24.83;;
18455;SDS011;9357;49.900;8.208;2024-01-30T06:00:43;37.40;;;25.25;;
18455;SDS011;9357;49.900;8.208;2024-01-30T06:02:16;40.25;;;25.67;;
18455;SDS011;9357;49.900;8.208;2024-01-30T06:03:48;45.13;;;26.45;;
18455;SDS011;9357;49.900;8.208;2024-01-30T06:05:21;44.15;;;26.92;;
18455;SDS011;9357;49.900;8.208;2024-01-30T06:06:53;50.53;;;27.27;;
18455;SDS011;9357;49.900;8.208;2024-01-30T06:08:25;45.20;;;26.65;;
18455;SDS011;9357;49.900;8.208;2024-01-30T06:09:57;43.10;;;25.83;;
18455;SDS011;9357;49.900;8.208;2024-01-30T06:11:31;39.40;;;25.05;;
18455;SDS011;9357;49.900;8.208;2024-01-30T06:13:04;39.78;;;24.98;;
18455;SDS011;9357;49.900;8.208;2024-01-30T06:14:37;38.17;;;22.83;;
18455;SDS011;9357;49.900;8.208;2024-01-30T06:16:09;35.80;;;22.95;;
18455;SDS011;9357;49.900;8.208;2024-01-30T06:17:43;36.83;;;23.17;;
18455;SDS011;9357;49.900;8.208;2024-01-30T06:19:15;36.33;;;22.48;;
18455;SDS011;9357;49.900;8.208;2024-01-30T06:20:48;35.90;;;23.05;;
18455;SDS011;9357;49.900;8.208;2024-01-30T06:22:19;33.90;;;21.40;;
18455;SDS011;9357;49.900;8.208;2024-01-30T06:23:52;35.40;;;22.50;;
18455;SDS011;9357;49.900;8.208;2024-01-30T06:25:24;34.70;;;22.10;;
18455;SDS011;9357;49.900;8.208;2024-01-30T06:26:57;32.78;;;21.38;;
18455;SDS011;9357;49.900;8.208;2024-01-30T06:28:30;37.35;;;23.60;;
18455;SDS011;9357;49.900;8.208;2024-01-30T06:30:03;36.45;;;22.50;;
18455;SDS011;9357;49.900;8.208;2024-01-30T06:31:39;32.78;;;22.38;;
18455;SDS011;9357;49.900;8.208;2024-01-30T06:33:12;35.22;;;23.02;;
18455;SDS011;9357;49.900;8.208;2024-01-30T06:34:44;38.55;;;23.45;;
18455;SDS011;9357;49.900;8.208;2024-01-30T06:36:17;35.97;;;22.60;;
18455;SDS011;9357;49.900;8.208;2024-01-30T06:37:49;38.15;;;24.05;;
18455;SDS011;9357;49.900;8.208;2024-01-30T06:39:21;35.33;;;23.65;;
18455;SDS011;9357;49.900;8.208;2024-01-30T06:40:54;36.28;;;23.20;;
18455;SDS011;9357;49.900;8.208;2024-01-30T06:42:27;35.35;;;23.48;;
18455;SDS011;9357;49.900;8.208;2024-01-30T06:44:01;36.15;;;23.83;;
18455;SDS011;9357;49.900;8.208;2024-01-30T06:45:35;38.58;;;24.75;;
18455;SDS011;9357;49.900;8.208;2024-01-30T06:47:07;41.15;;;24.55;;
18455;SDS011;9357;49.900;8.208;2024-01-30T06:48:39;41.92;;;25.85;;
18455;SDS011;9357;49.900;8.208;2024-01-30T06:50:11;39.13;;;24.25;;
18455;SDS011;9357;49.900;8.208;2024-01-30T06:51:44;40.70;;;24.17;;
18455;SDS011;9357;49.900;8.208;2024-01-30T06:53:16;39.50;;;24.38;;
18455;SDS011;9357;49.900;8.208;2024-01-30T06:54:49;39.72;;;25.25;;
18455;SDS011;9357;49.900;8.208;2024-01-30T06:56:21;40.50;;;25.67;;
18455;SDS011;9357;49.900;8.208;2024-01-30T06:57:53;37.90;;;24.92;;
18455;SDS011;9357;49.900;8.208;2024-01-30T06:59:26;36.72;;;24.05;;
18455;SDS011;9357;49.900;8.208;2024-01-30T07:00:59;37.58;;;24.08;;
18455;SDS011;9357;49.900;8.208;2024-01-30T07:02:31;38.33;;;24.63;;
18455;SDS011;9357;49.900;8.208;2024-01-30T07:04:04;33.00;;;22.75;;
18455;SDS011;9357;49.900;8.208;2024-01-30T07:05:36;36.55;;;22.25;;
18455;SDS011;9357;49.900;8.208;2024-01-30T07:07:09;34.78;;;21.88;;
18455;SDS011;9357;49.900;8.208;2024-01-30T07:08:43;36.13;;;23.73;;
18455;SDS011;9357;49.900;8.208;2024-01-30T07:10:16;36.22;;;23.70;;
18455;SDS011;9357;49.900;8.208;2024-01-30T07:11:48;35.75;;;23.15;;
18455;SDS011;9357;49.900;8.208;2024-01-30T07:13:21;39.17;;;24.90;;
18455;SDS011;9357;49.900;8.208;2024-01-30T07:14:55;32.42;;;22.05;;
18455;SDS011;9357;49.900;8.208;2024-01-30T07:16:27;31.92;;;21.40;;
18455;SDS011;9357;49.900;8.208;2024-01-30T07:18:00;33.42;;;20.77;;
18455;SDS011;9357;49.900;8.208;2024-01-30T07:19:32;37.30;;;22.33;;
18455;SDS011;9357;49.900;8.208;2024-01-30T07:21:06;36.55;;;22.95;;
18455;SDS011;9357;49.900;8.208;2024-01-30T07:22:37;35.88;;;21.80;;
18455;SDS011;9357;49.900;8.208;2024-01-30T07:24:10;34.08;;;22.13;;
18455;SDS011;9357;49.900;8.208;2024-01-30T07:25:42;34.00;;;21.42;;
18455;SDS011;9357;49.900;8.208;2024-01-30T07:27:17;35.22;;;21.45;;
18455;SDS011;9357;49.900;8.208;2024-01-30T07:28:49;31.23;;;21.15;;
18455;SDS011;9357;49.900;8.208;2024-01-30T07:30:23;29.23;;;20.13;;
18455;SDS011;9357;49.900;8.208;2024-01-30T07:31:56;28.90;;;20.15;;
18455;SDS011;9357;49.900;8.208;2024-01-30T07:33:28;28.85;;;20.58;;
18455;SDS011;9357;49.900;8.208;2024-01-30T07:35:00;29.33;;;20.67;;
18455;SDS011;9357;49.900;8.208;2024-01-30T07:36:39;33.03;;;21.58;;
18455;SDS011;9357;49.900;8.208;2024-01-30T07:38:12;30.38;;;20.58;;
18455;SDS011;9357;49.900;8.208;2024-01-30T07:39:43;33.03;;;20.92;;
18455;SDS011;9357;49.900;8.208;2024-01-30T07:41:16;34.20;;;21.65;;
18455;SDS011;9357;49.900;8.208;2024-01-30T07:42:48;29.38;;;21.25;;
18455;SDS011;9357;49.900;8.208;2024-01-30T07:44:21;32.60;;;21.58;;
18455;SDS011;9357;49.900;8.208;2024-01-30T07:45:54;36.75;;;21.58;;
18455;SDS011;9357;49.900;8.208;2024-01-30T07:47:27;34.92;;;23.02;;
18455;SDS011;9357;49.900;8.208;2024-01-30T07:48:59;38.20;;;25.33;;
18455;SDS011;9357;49.900;8.208;2024-01-30T07:50:32;37.97;;;23.30;;
18455;SDS011;9357;49.900;8.208;2024-01-30T07:52:05;36.80;;;24.00;;
18455;SDS011;9357;49.900;8.208;2024-01-30T07:53:38;40.10;;;24.48;;
18455;SDS011;9357;49.900;8.208;2024-01-30T07:55:10;39.28;;;23.67;;
18455;SDS011;9357;49.900;8.208;2024-01-30T07:56:43;36.22;;;22.27;;
18455;SDS011;9357;49.900;8.208;2024-01-30T07:58:15;31.55;;;22.20;;
18455;SDS011;9357;49.900;8.208;2024-01-30T07:59:48;33.60;;;21.85;;
18455;SDS011;9357;49.900;8.208;2024-01-30T08:01:21;33.95;;;22.60;;
18455;SDS011;9357;49.900;8.208;2024-01-30T08:02:54;33.60;;;23.60;;
18455;SDS011;9357;49.900;8.208;2024-01-30T08:04:26;32.92;;;22.85;;
18455;SDS011;9357;49.900;8.208;2024-01-30T08:05:59;31.10;;;22.75;;
18455;SDS011;9357;49.900;8.208;2024-01-30T08:07:31;62.65;;;37.30;;
18455;SDS011;9357;49.900;8.208;2024-01-30T08:09:04;40.20;;;27.23;;
18455;SDS011;9357;49.900;8.208;2024-01-30T08:10:36;35.83;;;24.25;;
18455;SDS011;9357;49.900;8.208;2024-01-30T08:12:08;35.53;;;25.70;;
18455;SDS011;9357;49.900;8.208;2024-01-30T08:13:40;38.40;;;24.40;;
18455;SDS011;9357;49.900;8.208;2024-01-30T08:15:13;38.15;;;27.55;;
18455;SDS011;9357;49.900;8.208;2024-01-30T08:16:46;35.40;;;24.45;;
18455;SDS011;9357;49.900;8.208;2024-01-30T08:18:19;37.70;;;25.77;;
18455;SDS011;9357;49.900;8.208;2024-01-30T08:19:51;40.35;;;27.08;;
18455;SDS011;9357;49.900;8.208;2024-01-30T08:21:24;37.70;;;25.98;;
18455;SDS011;9357;49.900;8.208;2024-01-30T08:22:55;39.28;;;26.02;;
18455;SDS011;9357;49.900;8.208;2024-01-30T08:24:28;38.90;;;25.60;;
18455;SDS011;9357;49.900;8.208;2024-01-30T08:26:00;39.78;;;27.17;;
18455;SDS011;9357;49.900;8.208;2024-01-30T08:27:33;42.40;;;27.73;;
18455;SDS011;9357;49.900;8.208;2024-01-30T08:29:06;41.97;;;28.33;;
18455;SDS011;9357;49.900;8.208;2024-01-30T08:30:38;40.55;;;27.40;;
18455;SDS011;9357;49.900;8.208;2024-01-30T08:32:13;39.65;;;26.30;;
18455;SDS011;9357;49.900;8.208;2024-01-30T08:33:44;37.75;;;25.55;;
18455;SDS011;9357;49.900;8.208;2024-01-30T08:35:20;36.13;;;24.73;;
18455;SDS011;9357;49.900;8.208;2024-01-30T08:36:52;36.90;;;26.15;;
18455;SDS011;9357;49.900;8.208;2024-01-30T08:38:25;43.22;;;27.80;;
18455;SDS011;9357;49.900;8.208;2024-01-30T08:39:57;41.85;;;28.40;;
18455;SDS011;9357;49.900;8.208;2024-01-30T08:41:29;47.25;;;30.08;;
18455;SDS011;9357;49.900;8.208;2024-01-30T08:43:01;44.83;;;30.33;;
18455;SDS011;9357;49.900;8.208;2024-01-30T08:44:35;44.65;;;29.98;;
18455;SDS011;9357;49.900;8.208;2024-01-30T08:46:07;43.80;;;28.13;;
18455;SDS011;9357;49.900;8.208;2024-01-30T08:47:41;44.53;;;30.02;;
18455;SDS011;9357;49.900;8.208;2024-01-30T08:49:13;40.60;;;29.02;;
18455;SDS011;9357;49.900;8.208;2024-01-30T08:50:48;43.97;;;29.63;;
18455;SDS011;9357;49.900;8.208;2024-01-30T08:52:20;38.85;;;28.30;;
18455;SDS011;9357;49.900;8.208;2024-01-30T08:53:52;38.75;;;26.33;;
18455;SDS011;9357;49.900;8.208;2024-01-30T08:55:25;44.33;;;29.75;;
18455;SDS011;9357;49.900;8.208;2024-01-30T08:56:58;41.92;;;29.55;;
18455;SDS011;9357;49.900;8.208;2024-01-30T08:58:30;42.30;;;28.75;;
18455;SDS011;9357;49.900;8.208;2024-01-30T09:00:03;42.42;;;28.30;;
18455;SDS011;9357;49.900;8.208;2024-01-30T09:01:37;38.90;;;26.65;;
18455;SDS011;9357;49.900;8.208;2024-01-30T09:03:13;41.83;;;28.17;;
18455;SDS011;9357;49.900;8.208;2024-01-30T09:04:46;40.85;;;29.48;;
18455;SDS011;9357;49.900;8.208;2024-01-30T09:06:18;43.10;;;29.40;;
18455;SDS011;9357;49.900;8.208;2024-01-30T09:07:51;44.75;;;30.13;;
18455;SDS011;9357;49.900;8.208;2024-01-30T09:09:23;42.60;;;29.77;;